Johnsons Bayou, Louisiana
Current Conditions -  °F | °C
As of 6:15 AM on Friday 28 Nov 2014 (Local Time) from KORG Reporting Station
Clear Clear  
Wind Chill: 39°   Ceiling: Unl
Heat Index: 39°   Visibility: 10mi
Dew Point: 38°   Wind: 0mph
Humidity: 97%   Direction: NA
Pressure: 30.41"   Gusts: NA
Location:  29.8391°N, 93.6411°W
Report Text: KORG 281215Z AUTO 00000KT 10SM CLR 04/04 A3041 RMK AO2 T00400035
Loading
Personal Weather Stations






























Interactive Weather Map New forecast layout! Learn more

10-Day Weather Forecast

Advertisements
Track Severe Weather on mobile